PDT,Max TemperatureF,Mean TemperatureF,Min TemperatureF,Max Dew PointF,MeanDew PointF,Min DewpointF,Max Humidity, Mean Humidity, Min Humidity, Max Sea Level PressureIn, Mean Sea Level PressureIn, Min Sea Level PressureIn, Max VisibilityMiles, Mean VisibilityMiles, Min VisibilityMiles, Max Wind SpeedMPH, Mean Wind SpeedMPH, Max Gust SpeedMPH,PrecipitationIn, CloudCover, Events, WindDirDegrees
2013-10-1,68,59,50,54,49,45,94,69,46,30.05,30.02,30.00,10,10,7,8,1,,0.00,1,,241
2013-10-2,66,60,53,46,36,28,67,42,24,30.04,30.01,29.98,10,10,10,8,2,,0.00,0,,237
2013-10-3,66,56,46,32,22,3,57,29,8,30.11,30.04,30.00,10,10,10,14,3,26,0.00,0,,46
2013-10-4,75,63,51,19,12,0,26,15,8,30.21,30.14,30.08,10,10,10,17,9,33,0.00,0,,80
2013-10-5,73,64,55,27,16,3,27,16,10,30.29,30.25,30.21,10,10,10,13,6,,0.00,0,,102
2013-10-6,75,67,59,27,20,7,27,18,9,30.24,30.19,30.11,10,10,10,7,2,,0.00,0,,116
2013-10-7,75,67,59,25,16,7,23,15,9,30.11,30.03,29.97,10,10,10,10,2,,0.00,0,,266
2013-10-8,66,60,53,32,26,16,44,28,18,29.97,29.88,29.72,10,10,2,9,2,,0.00,0,,276
2013-10-9,64,57,50,36,32,28,58,41,27,29.79,29.68,29.59,10,10,8,14,6,22,0.00,2,,84
2013-10-10,62,54,46,39,36,32,71,57,39,29.97,29.88,29.79,10,8,2,8,3,,0.00,0,,180
2013-10-11,64,57,50,39,37,36,66,45,34,30.10,30.06,30.03,10,10,5,9,1,,0.00,0,,266
2013-10-12,64,56,48,45,35,32,87,45,34,30.04,29.99,29.93,10,10,3,9,1,,0.04,1,,229
2013-10-13,64,55,46,45,37,32,93,55,34,30.04,29.99,29.93,10,10,9,13,5,17,0.00,1,,356
2013-10-14,,,,,,,,,,,,,,,,,,,,,,
2013-10-15,73,65,57,27,17,7,25,16,10,30.11,30.07,30.05,10,10,1,12,7,92,0.06,0,,95
2013-10-16,71,63,55,32,23,5,36,23,11,30.19,30.14,30.08,10,10,10,9,3,,0.00,0,,143
2013-10-17,71,63,55,32,27,19,36,27,16,30.15,30.11,30.06,10,10,10,9,1,,0.00,0,,284
2013-10-18,73,65,57,36,25,14,39,23,15,30.14,30.10,30.06,10,10,8,7,1,,0.00,0,,229
2013-10-19,75,67,59,32,28,25,36,24,15,30.17,30.14,30.12,10,10,10,7,1,,0.00,0,,204
2013-10-20,75,66,57,36,31,27,44,28,18,30.12,30.05,30.00,10,10,9,8,1,,0.00,0,,280
2013-10-21,75,66,57,36,33,27,44,30,19,30.07,30.04,30.02,10,10,8,7,1,,0.00,0,,284
2013-10-22,78,70,62,28,19,10,26,16,9,30.11,30.07,30.03,10,10,9,7,3,,0.00,0,,107
2013-10-23,77,68,60,23,15,7,21,13,8,30.04,30.01,29.97,10,10,10,13,2,16,0.00,0,,295
2013-10-24,75,68,60,30,22,14,30,19,14,30.13,30.06,30.01,10,10,10,8,1,,0.00,0,,290
2013-10-25,75,66,57,36,26,18,42,23,11,30.22,30.18,30.13,10,10,10,9,2,,0.00,0,,301
2013-10-26,75,65,55,36,27,19,33,24,15,30.22,30.16,30.10,10,10,10,5,0,,0.00,0,,171
2013-10-27,68,54,39,41,28,19,100,38,18,30.10,29.86,29.59,10,9,2,16,4,23,0.15,1,,153
2013-10-28,44,42,39,43,40,37,100,94,81,29.85,29.70,29.59,10,6,0,8,2,,0.01,8,,127
2013-10-29,46,42,39,45,41,37,100,93,81,30.05,29.97,29.86,10,8,1,6,2,,0.02,6,,135
2013-10-30,55,47,39,39,35,32,93,64,47,30.14,30.10,30.04,10,10,9,8,2,,0.00,0,,308
2013-10-31,64,54,44,43,36,28,76,54,37,30.19,30.15,30.12,10,10,5,8,2,,0.00,0,,169